Time;durP1;ratioP1;P1;durP2;ratioP2;P2;SDS_P1;SDS_P2;PMS_P1;PMS_P2;Temp;Humidity;BMP_temperature;BMP_pressure;BME280_temperature;BME280_humidity;BME280_pressure;Samples;Min_cycle;Max_cycle;Signal;HPM_P1;HPM_P2
2022/09/19 00:00:54;;;;;;;;;;;;;;;12.44;100.00;97526.91;5073529;28;19928;-81
2022/09/19 00:03:22;;;;;;;;;;;;;;;12.53;100.00;97540.50;5072900;28;19928;-80
2022/09/19 00:05:48;;;;;;;;;;;;;;;12.53;100.00;97540.50;5051686;28;19939;-80
2022/09/19 00:08:15;;;;;;;;;;;;;;;12.54;100.00;97539.41;5068839;28;19924;-80
2022/09/19 00:10:41;;;;;;;;;;;;;;;12.40;100.00;97531.25;5059593;28;19924;-79
2022/09/19 00:13:08;;;;;;;;;;;;;;;12.50;100.00;97547.22;5069266;28;19932;-80
2022/09/19 00:15:35;;;;;;;;;;;;;;;12.49;100.00;97537.59;5073815;28;20007;-81
2022/09/19 00:18:02;;;;;;;;;;;;;;;12.37;100.00;97537.16;5059436;28;19931;-80
2022/09/19 00:20:30;;;;;;;;;;;;;;;12.34;100.00;97548.44;5060495;28;19985;-81
2022/09/19 00:25:40;;;;;;;;;;;;;;;12.19;100.00;97556.63;5049249;28;20132;-80
2022/09/19 00:28:07;;;;;;;;;;;;;;;12.28;100.00;97560.28;5089410;28;19928;-82
2022/09/19 00:30:37;;;;;;;;;;;;;;;12.32;100.00;97558.63;5085119;28;20300;-80
2022/09/19 00:33:04;;;;;;;;;;;;;;;12.36;100.00;97557.00;5059578;28;19978;-80
2022/09/19 00:35:32;;;;;;;;;;;;;;;12.35;100.00;97558.06;5058283;28;19924;-80
2022/09/19 00:37:59;;;;;;;;;;;;;;;12.32;100.00;97556.75;5036627;28;20434;-82
2022/09/19 00:40:25;;;;;;;;;;;;;;;12.27;100.00;97547.97;5064126;28;19928;-80
2022/09/19 00:42:51;;;;;;;;;;;;;;;12.30;100.00;97553.56;5063420;28;20471;-80
2022/09/19 00:45:18;;;;;;;;;;;;;;;12.27;100.00;97553.31;5066620;28;19934;-81
2022/09/19 00:47:46;;;;;;;;;;;;;;;12.27;100.00;97543.41;5065704;28;19928;-80
2022/09/19 00:50:16;;;;;;;;;;;;;;;12.28;100.00;97544.22;5066481;28;19928;-80
2022/09/19 00:52:47;;;;;;;;;;;;;;;12.03;100.00;97553.28;5039399;28;20004;-81
2022/09/19 00:55:14;;;;;;;;;;;;;;;12.10;100.00;97548.38;5062595;28;19924;-80
2022/09/19 00:57:45;;;;;;;;;;;;;;;12.16;100.00;97549.94;5059632;28;19924;-80
2022/09/19 01:00:12;;;;;;;;;;;;;;;12.10;100.00;97551.06;5053053;28;19936;-80
2022/09/19 01:02:39;;;;;;;;;;;;;;;11.96;100.00;97554.66;5067663;28;19924;-80
2022/09/19 01:05:07;;;;;;;;;;;;;;;12.05;100.00;97559.16;5068993;28;20390;-80
2022/09/19 01:07:41;;;;;;;;;;;;;;;12.13;100.00;97552.41;5073126;28;19927;-80
2022/09/19 01:10:13;;;;;;;;;;;;;;;12.15;100.00;97547.56;5073978;28;19970;-80
2022/09/19 01:12:47;;;;;;;;;;;;;;;12.21;100.00;97554.44;5060297;28;19955;-81
2022/09/19 01:15:19;;;;;;;;;;;;;;;12.12;100.00;97559.63;5077731;28;19982;-80
2022/09/19 01:17:47;;;;;;;;;;;;;;;12.17;100.00;97553.41;5071147;28;19928;-79
2022/09/19 01:20:26;;;;;;;;;;;;;;;12.19;100.00;97562.75;5059693;28;19928;-79
2022/09/19 01:23:02;;;;;;;;;;;;;;;12.18;100.00;97557.69;5068277;28;20292;-78
2022/09/19 01:25:34;;;;;;;;;;;;;;;12.14;100.00;97570.84;5044009;28;19929;-79
2022/09/19 01:28:11;;;;;;;;;;;;;;;12.16;100.00;97578.59;5068870;28;19931;-81
2022/09/19 01:30:39;;;;;;;;;;;;;;;12.09;100.00;97578.13;5060393;28;20388;-80
2022/09/19 01:33:07;;;;;;;;;;;;;;;12.04;100.00;97578.94;5058386;28;19924;-79
2022/09/19 01:35:38;;;;;;;;;;;;;;;12.09;100.00;97581.59;5067024;28;20418;-80
2022/09/19 01:38:08;;;;;;;;;;;;;;;12.01;100.00;97582.19;5065774;28;19939;-80
2022/09/19 01:40:36;;;;;;;;;;;;;;;11.97;100.00;97580.38;5060873;28;20029;-80
2022/09/19 01:43:05;;;;;;;;;;;;;;;12.02;100.00;97588.34;5047052;28;19924;-80
2022/09/19 01:45:36;;;;;;;;;;;;;;;11.99;100.00;97578.19;5061993;28;20300;-80
2022/09/19 01:48:07;;;;;;;;;;;;;;;12.00;100.00;97593.19;5071293;28;19972;-81
2022/09/19 01:50:46;;;;;;;;;;;;;;;12.04;100.00;97594.22;5065369;28;19932;-79
2022/09/19 01:53:20;;;;;;;;;;;;;;;12.04;100.00;97592.31;5061893;28;19932;-79
2022/09/19 01:55:54;;;;;;;;;;;;;;;12.01;100.00;97589.44;5055263;28;19928;-80
2022/09/19 01:58:25;;;;;;;;;;;;;;;11.93;100.00;97590.00;5084403;28;19993;-80
2022/09/19 02:00:54;;;;;;;;;;;;;;;11.92;100.00;97597.25;5062629;28;20416;-80
2022/09/19 02:03:27;;;;;;;;;;;;;;;12.01;100.00;97600.91;5059591;28;19932;-79
2022/09/19 02:05:56;;;;;;;;;;;;;;;12.03;100.00;97590.75;5059439;28;19928;-80
2022/09/19 02:08:28;;;;;;;;;;;;;;;12.04;100.00;97592.31;5076337;28;19931;-79
2022/09/19 02:10:56;;;;;;;;;;;;;;;12.07;100.00;97594.44;5072006;28;19968;-78
2022/09/19 02:13:24;;;;;;;;;;;;;;;12.08;100.00;97600.59;5083409;28;19983;-80
2022/09/19 02:15:54;;;;;;;;;;;;;;;12.11;100.00;97602.72;5082482;28;19924;-80
2022/09/19 02:18:26;;;;;;;;;;;;;;;12.14;100.00;97596.81;5069480;28;19951;-80
2022/09/19 02:20:55;;;;;;;;;;;;;;;12.08;100.00;97597.91;5074696;28;19932;-79
2022/09/19 02:23:25;;;;;;;;;;;;;;;12.13;100.00;97600.56;5056695;28;19934;-81
2022/09/19 02:25:51;;;;;;;;;;;;;;;12.10;100.00;97609.16;5064067;28;19924;-79
2022/09/19 02:28:21;;;;;;;;;;;;;;;12.13;100.00;97605.94;5076080;28;19985;-80
2022/09/19 02:30:48;;;;;;;;;;;;;;;12.16;100.00;97608.06;5068961;28;19932;-80
2022/09/19 02:33:15;;;;;;;;;;;;;;;12.10;100.00;97603.81;5049474;28;20457;-79
2022/09/19 02:35:48;;;;;;;;;;;;;;;12.21;100.00;97613.34;5074917;28;20457;-79
2022/09/19 02:38:21;;;;;;;;;;;;;;;12.21;100.00;97621.38;5071531;28;19928;-80
2022/09/19 02:40:50;;;;;;;;;;;;;;;12.21;100.00;97616.03;5071355;28;19935;-80
2022/09/19 02:43:20;;;;;;;;;;;;;;;12.09;100.00;97613.72;5080106;28;19959;-78
2022/09/19 02:45:50;;;;;;;;;;;;;;;12.21;100.00;97608.00;5076715;28;19925;-79
2022/09/19 02:48:20;;;;;;;;;;;;;;;12.17;100.00;97601.59;5083182;28;19947;-82
2022/09/19 02:50:52;;;;;;;;;;;;;;;12.04;100.00;97595.00;5065732;28;19986;-79
2022/09/19 02:53:29;;;;;;;;;;;;;;;12.02;100.00;97604.41;5068711;28;19930;-80
2022/09/19 02:55:57;;;;;;;;;;;;;;;11.97;100.00;97604.44;5077955;28;19931;-80
2022/09/19 02:58:25;;;;;;;;;;;;;;;11.96;100.00;97609.00;5059253;28;19939;-79
2022/09/19 03:00:55;;;;;;;;;;;;;;;11.91;100.00;97606.38;5076749;28;20452;-79
2022/09/19 03:06:11;;;;;;;;;;;;;;;11.98;100.00;97606.03;5055269;28;19935;-81
2022/09/19 03:08:38;;;;;;;;;;;;;;;11.83;100.00;97610.41;5096600;28;19923;-80
2022/09/19 03:11:08;;;;;;;;;;;;;;;11.89;100.00;97608.50;5073609;28;20311;-79
2022/09/19 03:13:36;;;;;;;;;;;;;;;11.83;100.00;97612.28;5082593;28;19931;-79
2022/09/19 03:16:06;;;;;;;;;;;;;;;11.86;100.00;97607.19;5084273;28;19928;-79
2022/09/19 03:18:33;;;;;;;;;;;;;;;11.91;100.00;97609.81;5087341;28;19935;-78
2022/09/19 03:21:02;;;;;;;;;;;;;;;11.79;100.00;97606.69;5075841;28;19924;-79
2022/09/19 03:23:32;;;;;;;;;;;;;;;11.77;100.00;97608.84;5073498;28;20314;-79
2022/09/19 03:25:58;;;;;;;;;;;;;;;11.77;100.00;97608.84;5066084;28;20324;-78
2022/09/19 03:28:25;;;;;;;;;;;;;;;11.65;100.00;97605.69;5081768;28;19936;-79
2022/09/19 03:30:51;;;;;;;;;;;;;;;11.71;100.00;97599.25;5075852;28;19928;-79
2022/09/19 03:33:18;;;;;;;;;;;;;;;11.65;100.00;97605.69;5078981;28;20428;-79
2022/09/19 03:35:47;;;;;;;;;;;;;;;11.70;100.00;97602.19;5074794;28;19935;-80
2022/09/19 03:38:14;;;;;;;;;;;;;;;11.52;100.00;97606.28;5074336;28;19935;-79
2022/09/19 03:40:42;;;;;;;;;;;;;;;11.50;100.00;97608.47;5066507;28;19972;-79
2022/09/19 03:43:08;;;;;;;;;;;;;;;11.58;100.00;97610.53;5072577;28;19924;-80
2022/09/19 03:45:34;;;;;;;;;;;;;;;11.63;100.00;97607.84;5064779;28;20015;-80
2022/09/19 03:48:01;;;;;;;;;;;;;;;11.58;100.00;97615.09;5084380;28;20023;-79
2022/09/19 03:50:27;;;;;;;;;;;;;;;11.58;100.00;97610.53;5070828;28;19936;-80
2022/09/19 03:52:54;;;;;;;;;;;;;;;11.63;100.00;97615.06;5078000;28;19928;-79
2022/09/19 03:55:20;;;;;;;;;;;;;;;11.58;100.00;97615.88;5079447;28;20015;-80
2022/09/19 03:57:48;;;;;;;;;;;;;;;11.35;100.00;97613.88;5064623;28;19978;-79
2022/09/19 04:00:15;;;;;;;;;;;;;;;11.44;100.00;97630.94;5064493;28;19929;-79
2022/09/19 04:02:42;;;;;;;;;;;;;;;11.47;100.00;97629.59;5067447;28;19931;-79
2022/09/19 04:05:09;;;;;;;;;;;;;;;11.38;100.00;97632.84;5071497;28;19929;-80
2022/09/19 04:07:37;;;;;;;;;;;;;;;11.47;100.00;97634.94;5058194;28;19928;-80
2022/09/19 04:10:04;;;;;;;;;;;;;;;11.55;100.00;97629.81;5059902;28;19928;-80
2022/09/19 04:12:31;;;;;;;;;;;;;;;11.52;100.00;97638.38;5067222;28;19935;-80
2022/09/19 04:14:59;;;;;;;;;;;;;;;11.50;100.00;97629.84;5058201;28;19928;-79
2022/09/19 04:17:27;;;;;;;;;;;;;;;11.56;100.00;97628.75;5062843;28;19935;-79
2022/09/19 04:19:54;;;;;;;;;;;;;;;11.53;100.00;97640.00;5055401;28;20015;-79
2022/09/19 04:22:21;;;;;;;;;;;;;;;11.51;100.00;97636.00;5055761;28;19935;-78
2022/09/19 04:24:48;;;;;;;;;;;;;;;11.50;100.00;97637.88;5039384;28;19925;-79
2022/09/19 04:27:14;;;;;;;;;;;;;;;11.36;100.00;97637.66;5064167;28;19928;-79
2022/09/19 04:29:41;;;;;;;;;;;;;;;11.45;100.00;97647.78;5066278;28;19936;-79
2022/09/19 04:32:09;;;;;;;;;;;;;;;11.56;100.00;97652.00;5067985;28;20022;-79
2022/09/19 04:34:36;;;;;;;;;;;;;;;11.45;100.00;97656.59;5064401;28;20032;-79
2022/09/19 04:37:03;;;;;;;;;;;;;;;11.48;100.00;97663.28;5079642;28;20038;-78
2022/09/19 04:39:29;;;;;;;;;;;;;;;11.36;100.00;97661.72;5069202;28;19955;-80
2022/09/19 04:41:56;;;;;;;;;;;;;;;11.43;100.00;97674.00;5085109;28;19928;-79
2022/09/19 04:44:27;;;;;;;;;;;;;;;11.50;100.00;97672.63;5049555;28;20503;-78
2022/09/19 04:46:53;;;;;;;;;;;;;;;11.51;100.00;97668.91;5072963;28;19935;-79
2022/09/19 04:49:21;;;;;;;;;;;;;;;11.50;100.00;97667.28;5071417;28;20023;-80
2022/09/19 04:51:47;;;;;;;;;;;;;;;11.55;100.00;97671.78;5054439;28;19947;-80
2022/09/19 04:54:14;;;;;;;;;;;;;;;11.47;100.00;97678.53;5088668;28;19925;-79
2022/09/19 04:56:43;;;;;;;;;;;;;;;11.48;100.00;97682.00;5077574;28;19932;-78
2022/09/19 04:59:10;;;;;;;;;;;;;;;11.59;100.00;97683.56;5071372;28;19924;-79
2022/09/19 05:01:37;;;;;;;;;;;;;;;11.63;100.00;97689.97;5061208;28;20339;-80
2022/09/19 05:04:04;;;;;;;;;;;;;;;11.38;100.00;97686.31;5076719;28;20011;-79
2022/09/19 05:06:32;;;;;;;;;;;;;;;11.44;100.00;97694.31;5070541;28;19924;-78
2022/09/19 05:08:58;;;;;;;;;;;;;;;11.47;100.00;97701.78;5086002;28;19971;-79
2022/09/19 05:11:24;;;;;;;;;;;;;;;11.48;100.00;97698.06;5079842;28;19944;-78
2022/09/19 05:13:52;;;;;;;;;;;;;;;11.46;100.00;97710.88;5068599;28;20334;-80
2022/09/19 05:16:19;;;;;;;;;;;;;;;11.35;100.00;97702.09;5083985;28;19924;-83
2022/09/19 05:18:45;;;;;;;;;;;;;;;11.48;100.00;97720.22;5079187;28;19934;-79
2022/09/19 05:21:13;;;;;;;;;;;;;;;11.50;100.00;97720.78;5075311;28;19924;-79
2022/09/19 05:23:41;;;;;;;;;;;;;;;11.41;100.00;97721.59;5081012;28;20438;-79
2022/09/19 05:26:08;;;;;;;;;;;;;;;11.41;100.00;97725.09;5077115;28;19928;-80
2022/09/19 05:28:35;;;;;;;;;;;;;;;11.42;100.00;97723.22;5076261;28;19931;-77
2022/09/19 05:31:05;;;;;;;;;;;;;;;11.33;100.00;97725.63;5082106;28;20492;-80
2022/09/19 05:33:31;;;;;;;;;;;;;;;11.32;100.00;97732.06;5079197;28;19964;-80
2022/09/19 05:36:00;;;;;;;;;;;;;;;11.45;100.00;97739.50;5072945;28;19925;-78
2022/09/19 05:38:26;;;;;;;;;;;;;;;11.49;100.00;97745.09;5066476;28;19943;-79
2022/09/19 05:40:54;;;;;;;;;;;;;;;11.53;100.00;97741.63;5052299;28;19928;-79
2022/09/19 05:43:21;;;;;;;;;;;;;;;11.55;100.00;97747.47;5066620;28;19959;-79
2022/09/19 05:45:47;;;;;;;;;;;;;;;11.39;100.00;97741.38;5072562;28;19932;-79
2022/09/19 05:48:14;;;;;;;;;;;;;;;11.46;100.00;97757.13;5071736;28;19928;-78
2022/09/19 05:50:42;;;;;;;;;;;;;;;11.45;100.00;97755.53;5065271;28;20019;-78
2022/09/19 05:55:54;;;;;;;;;;;;;;;11.59;100.00;97761.91;5073889;28;19998;-80
2022/09/19 05:58:21;;;;;;;;;;;;;;;11.60;100.00;97765.41;5071336;28;19962;-80
2022/09/19 06:00:47;;;;;;;;;;;;;;;11.57;100.00;97757.94;5069925;28;20011;-79
2022/09/19 06:03:16;;;;;;;;;;;;;;;11.47;100.00;97769.44;5082864;28;19932;-79
2022/09/19 06:05:43;;;;;;;;;;;;;;;11.48;100.00;97775.59;5084777;28;19936;-79
2022/09/19 06:08:11;;;;;;;;;;;;;;;11.60;100.00;97779.59;5082589;28;19977;-80
2022/09/19 06:10:38;;;;;;;;;;;;;;;11.58;100.00;97781.72;5091113;28;19958;-79
2022/09/19 06:13:06;;;;;;;;;;;;;;;11.50;100.00;97784.16;5078203;28;20638;-78
2022/09/19 06:15:33;;;;;;;;;;;;;;;11.48;100.00;97784.41;5080417;28;19927;-79
2022/09/19 06:18:00;;;;;;;;;;;;;;;11.58;100.00;97797.75;5079918;28;19932;-79
2022/09/19 06:20:27;;;;;;;;;;;;;;;11.50;100.00;97797.50;5078770;28;19928;-79
2022/09/19 06:22:56;;;;;;;;;;;;;;;11.48;100.00;97800.44;5060944;28;19955;-79
2022/09/19 06:25:25;;;;;;;;;;;;;;;11.62;100.00;97796.16;5066334;28;21474;-79
2022/09/19 06:27:55;;;;;;;;;;;;;;;11.58;100.00;97805.78;5073583;28;19931;-79
2022/09/19 06:30:23;;;;;;;;;;;;;;;11.62;100.00;97798.81;5072510;28;20482;-79
2022/09/19 06:32:50;;;;;;;;;;;;;;;11.59;100.00;97804.72;5056748;28;19932;-79
2022/09/19 06:35:16;;;;;;;;;;;;;;;11.63;100.00;97807.66;5059862;28;19932;-81
2022/09/19 06:37:43;;;;;;;;;;;;;;;11.48;100.00;97802.34;5070263;28;19927;-80
2022/09/19 06:40:10;;;;;;;;;;;;;;;11.62;100.00;97812.19;5063633;28;19930;-79
2022/09/19 06:42:37;;;;;;;;;;;;;;;11.50;100.00;97822.38;5059985;28;19928;-78
2022/09/19 06:45:05;;;;;;;;;;;;;;;11.52;100.00;97814.88;5058442;28;20599;-78
2022/09/19 06:47:33;;;;;;;;;;;;;;;11.50;100.00;97816.22;5067131;28;19924;-81
2022/09/19 06:50:00;;;;;;;;;;;;;;;11.45;100.00;97825.06;5075788;28;19935;-80
2022/09/19 06:52:26;;;;;;;;;;;;;;;11.56;100.00;97821.31;5066283;28;19936;-79
2022/09/19 06:54:53;;;;;;;;;;;;;;;11.51;100.00;97829.34;5082943;28;19924;-78
2022/09/19 06:57:19;;;;;;;;;;;;;;;11.45;100.00;97838.44;5064036;28;19924;-77
2022/09/19 06:59:46;;;;;;;;;;;;;;;11.58;100.00;97839.75;5064126;28;19944;-78
2022/09/19 07:02:13;;;;;;;;;;;;;;;11.50;100.00;97838.44;5067259;28;19939;-78
2022/09/19 07:04:41;;;;;;;;;;;;;;;11.41;100.00;97842.72;5076355;28;19924;-79
2022/09/19 07:07:07;;;;;;;;;;;;;;;11.43;100.00;97853.94;5060257;28;19924;-79
2022/09/19 07:09:33;;;;;;;;;;;;;;;11.48;100.00;97858.50;5051014;28;19951;-79
2022/09/19 07:12:01;;;;;;;;;;;;;;;11.48;100.00;97861.94;5071746;28;19935;-78
2022/09/19 07:14:28;;;;;;;;;;;;;;;11.57;100.00;97863.03;5079815;28;19928;-79
2022/09/19 07:16:54;;;;;;;;;;;;;;;11.55;100.00;97867.84;5080121;28;20397;-79
2022/09/19 07:19:21;;;;;;;;;;;;;;;11.60;100.00;97865.16;5078151;28;20392;-79
2022/09/19 07:21:51;;;;;;;;;;;;;;;11.65;100.00;97872.38;5082593;28;19924;-79
2022/09/19 07:24:18;;;;;;;;;;;;;;;11.60;100.00;97870.53;5078473;28;19924;-78
2022/09/19 07:26:44;;;;;;;;;;;;;;;11.64;100.00;97868.88;5074219;28;19951;-78
2022/09/19 07:29:10;;;;;;;;;;;;;;;11.77;100.00;97881.75;5069147;28;19977;-80
2022/09/19 07:31:37;;;;;;;;;;;;;;;11.76;100.00;97880.13;5062331;28;19928;-80
2022/09/19 07:34:04;;;;;;;;;;;;;;;11.79;100.00;97884.94;5066649;28;19958;-77
2022/09/19 07:36:30;;;;;;;;;;;;;;;11.85;100.00;97885.75;5073592;28;20019;-79
2022/09/19 07:38:58;;;;;;;;;;;;;;;11.91;100.00;97893.47;5055666;28;19928;-78
2022/09/19 07:41:24;;;;;;;;;;;;;;;11.89;100.00;97892.94;5079237;28;19991;-79
2022/09/19 07:43:51;;;;;;;;;;;;;;;11.90;100.00;97896.44;5073739;28;19924;-79
2022/09/19 07:46:17;;;;;;;;;;;;;;;11.93;100.00;97905.78;5072034;28;19928;-79
2022/09/19 07:48:43;;;;;;;;;;;;;;;11.88;100.00;97907.38;5085645;28;19924;-79
2022/09/19 07:51:10;;;;;;;;;;;;;;;11.86;100.00;97912.22;5084387;28;19925;-79
2022/09/19 07:53:36;;;;;;;;;;;;;;;11.79;100.00;97903.66;5080908;28;19930;-79
2022/09/19 07:56:05;;;;;;;;;;;;;;;11.86;100.00;97916.78;5072350;28;19930;-79
2022/09/19 07:58:32;;;;;;;;;;;;;;;11.79;100.00;97895.63;5049390;28;19924;-80
2022/09/19 08:00:59;;;;;;;;;;;;;;;11.73;100.00;97912.78;5076455;28;19932;-79
2022/09/19 08:03:25;;;;;;;;;;;;;;;11.76;100.00;97922.16;5080249;28;19931;-80
2022/09/19 08:05:52;;;;;;;;;;;;;;;11.85;100.00;97934.69;5067047;28;19931;-80
2022/09/19 08:08:19;;;;;;;;;;;;;;;11.92;100.00;97931.75;5074543;28;19932;-80
2022/09/19 08:10:46;;;;;;;;;;;;;;;12.03;100.00;97932.53;5070704;28;20032;-77
2022/09/19 08:13:14;;;;;;;;;;;;;;;12.07;100.00;97937.06;5071887;28;19935;-80
2022/09/19 08:15:41;;;;;;;;;;;;;;;12.20;100.00;97939.16;5073616;28;20381;-80
2022/09/19 08:18:12;;;;;;;;;;;;;;;12.04;100.00;97945.63;5065485;28;19974;-78
2022/09/19 08:20:39;;;;;;;;;;;;;;;12.06;100.00;97940.03;5080187;28;20345;-81
2022/09/19 08:23:06;;;;;;;;;;;;;;;11.98;100.00;97946.72;5069052;28;20012;-80
2022/09/19 08:25:35;;;;;;;;;;;;;;;12.07;100.00;97961.16;5071678;28;19931;-79
2022/09/19 08:28:03;;;;;;;;;;;;;;;12.06;100.00;97953.41;5072728;28;20431;-79
2022/09/19 08:30:31;;;;;;;;;;;;;;;12.04;100.00;97947.53;5068114;28;19928;-80
2022/09/19 08:33:00;;;;;;;;;;;;;;;12.11;100.00;97962.22;5080268;28;20011;-80
2022/09/19 08:35:27;;;;;;;;;;;;;;;12.14;100.00;97956.31;5067261;28;19936;-80
2022/09/19 08:37:54;;;;;;;;;;;;;;;12.14;100.00;97950.97;5074428;28;19989;-80
2022/09/19 08:40:25;;;;;;;;;;;;;;;12.30;100.00;97962.44;5070848;28;19931;-81
2022/09/19 08:43:06;;;;;;;;;;;;;;;12.41;100.00;97970.16;5066830;28;19932;-79
2022/09/19 08:45:42;;;;;;;;;;;;;;;12.37;100.00;97963.78;5073450;28;19934;-79
2022/09/19 08:48:11;;;;;;;;;;;;;;;12.37;100.00;97973.69;5075427;28;20718;-80
2022/09/19 08:50:39;;;;;;;;;;;;;;;12.29;100.00;97972.34;5073924;28;19932;-77
2022/09/19 08:53:07;;;;;;;;;;;;;;;12.30;100.00;97975.81;5083217;28;19959;-80
2022/09/19 08:55:35;;;;;;;;;;;;;;;12.34;100.00;97980.38;5057398;28;19946;-80
2022/09/19 08:58:02;;;;;;;;;;;;;;;12.25;100.00;97975.84;5052734;28;19935;-79
2022/09/19 09:00:31;;;;;;;;;;;;;;;12.34;100.00;97983.06;5072131;28;19924;-79
2022/09/19 09:03:01;;;;;;;;;;;;;;;12.46;100.00;97985.44;5063178;28;19936;-79
2022/09/19 09:05:37;;;;;;;;;;;;;;;12.41;100.00;97986.22;5088799;28;19924;-80
2022/09/19 09:08:06;;;;;;;;;;;;;;;12.45;100.00;97997.22;5078496;28;19963;-75
2022/09/19 09:10:42;;;;;;;;;;;;;;;12.53;100.00;98001.22;5088026;28;19934;-80
2022/09/19 09:13:15;;;;;;;;;;;;;;;12.50;100.00;98005.25;5084446;28;19936;-80
2022/09/19 09:15:51;;;;;;;;;;;;;;;12.61;100.00;98017.53;5093167;28;19928;-80
2022/09/19 09:18:33;;;;;;;;;;;;;;;12.64;100.00;98008.94;5073272;28;19958;-79
2022/09/19 09:21:03;;;;;;;;;;;;;;;12.70;100.00;98018.56;5080111;28;19950;-80
2022/09/19 09:23:32;;;;;;;;;;;;;;;12.73;100.00;98020.69;5057503;28;19971;-79
2022/09/19 09:26:00;;;;;;;;;;;;;;;12.75;100.00;98023.88;5078265;28;19924;-81
2022/09/19 09:28:30;;;;;;;;;;;;;;;12.79;100.00;98033.00;5059340;28;19932;-79
2022/09/19 09:31:12;;;;;;;;;;;;;;;12.80;100.00;98029.25;5075086;28;19928;-78
2022/09/19 09:33:47;;;;;;;;;;;;;;;12.69;100.00;98022.31;5058085;28;20518;-80
2022/09/19 09:36:16;;;;;;;;;;;;;;;12.73;100.00;98018.00;5076524;28;19924;-81
2022/09/19 09:38:50;;;;;;;;;;;;;;;12.78;100.00;98017.22;5075077;28;19932;-81
2022/09/19 09:44:11;;;;;;;;;;;;;;;12.69;100.00;98038.38;5076438;28;19931;-79
2022/09/19 09:46:49;;;;;;;;;;;;;;;12.88;100.00;98036.72;5083394;28;20622;-80
2022/09/19 09:49:18;;;;;;;;;;;;;;;12.86;100.00;98036.19;5081985;28;19928;-80
2022/09/19 09:51:51;;;;;;;;;;;;;;;12.89;100.00;98038.31;5077484;28;19924;-79
2022/09/19 09:57:18;;;;;;;;;;;;;;;12.98;100.00;98046.59;5078044;28;19982;-80
2022/09/19 10:05:33;;;;;;;;;;;;;;;12.90;100.00;98061.34;5073709;28;20584;-79
2022/09/19 10:08:04;;;;;;;;;;;;;;;12.84;100.00;98062.44;5080994;28;19964;-79
2022/09/19 10:10:32;;;;;;;;;;;;;;;12.98;100.00;98052.75;5085644;28;19938;-80
2022/09/19 10:13:02;;;;;;;;;;;;;;;13.17;100.00;98063.69;5085568;28;20403;-78
2022/09/19 10:15:31;;;;;;;;;;;;;;;13.25;100.00;98064.97;5080668;28;19932;-81
2022/09/19 10:18:05;;;;;;;;;;;;;;;13.20;100.00;98062.34;5063508;28;20434;-81
2022/09/19 10:20:35;;;;;;;;;;;;;;;13.34;100.00;98076.75;5087981;28;19984;-80
2022/09/19 10:23:02;;;;;;;;;;;;;;;13.31;100.00;98071.94;5073757;28;19977;-79
2022/09/19 10:25:29;;;;;;;;;;;;;;;13.23;100.00;98081.38;5091115;28;19930;-80
2022/09/19 10:27:57;;;;;;;;;;;;;;;13.18;100.00;98072.56;5075740;28;20120;-80
2022/09/19 10:30:25;;;;;;;;;;;;;;;13.12;100.00;98084.38;5080369;28;19929;-79
2022/09/19 10:32:52;;;;;;;;;;;;;;;13.10;100.00;98078.47;5083377;28;19990;-79
2022/09/19 10:35:29;;;;;;;;;;;;;;;13.17;100.00;98087.03;5073865;28;19931;-80
2022/09/19 10:38:00;;;;;;;;;;;;;;;13.11;100.00;98093.50;5069387;28;19952;-81
2022/09/19 10:40:27;;;;;;;;;;;;;;;13.13;100.00;98092.13;5076827;28;19924;-79
2022/09/19 10:42:54;;;;;;;;;;;;;;;13.06;100.00;98094.25;5068663;28;19928;-78
2022/09/19 10:45:26;;;;;;;;;;;;;;;13.07;100.00;98095.06;5070849;28;19931;-79
2022/09/19 10:47:59;;;;;;;;;;;;;;;13.02;100.00;98093.22;5089249;28;19924;-80
2022/09/19 10:50:26;;;;;;;;;;;;;;;13.04;100.00;98092.94;5077128;28;19946;-80
2022/09/19 10:52:59;;;;;;;;;;;;;;;13.08;100.00;98099.38;5080896;28;19924;-79
2022/09/19 10:55:27;;;;;;;;;;;;;;;13.04;100.00;98098.31;5092594;28;19931;-80
2022/09/19 10:58:03;;;;;;;;;;;;;;;13.08;100.00;98094.00;5080730;28;19925;-79
2022/09/19 11:00:31;;;;;;;;;;;;;;;13.14;100.00;98091.06;5083868;28;19924;-79
2022/09/19 11:02:59;;;;;;;;;;;;;;;13.13;100.00;98096.69;5081548;28;19931;-79
2022/09/19 11:05:26;;;;;;;;;;;;;;;13.04;100.00;98098.31;5075023;28;20306;-79
2022/09/19 11:07:56;;;;;;;;;;;;;;;13.10;100.00;98099.91;5070454;28;19932;-79
2022/09/19 11:10:33;;;;;;;;;;;;;;;13.04;100.00;98098.31;5069285;28;20276;-79
2022/09/19 11:13:05;;;;;;;;;;;;;;;13.07;100.00;98097.75;5068024;28;19925;-80
2022/09/19 11:15:36;;;;;;;;;;;;;;;13.06;100.00;98101.53;5079661;28;19930;-78
2022/09/19 11:18:09;;;;;;;;;;;;;;;13.07;100.00;98113.84;5083014;28;19981;-80
2022/09/19 11:20:47;;;;;;;;;;;;;;;12.92;100.00;98099.44;5062107;28;19924;-79
2022/09/19 11:23:28;;;;;;;;;;;;;;;13.00;100.00;98114.94;5090468;28;19958;-80
2022/09/19 11:26:00;;;;;;;;;;;;;;;12.99;100.00;98116.03;5100013;28;20715;-80
2022/09/19 11:28:32;;;;;;;;;;;;;;;12.96;100.00;98113.09;5091857;28;19954;-79
2022/09/19 11:31:05;;;;;;;;;;;;;;;13.13;100.00;98115.47;5082767;28;19939;-78
2022/09/19 11:33:53;;;;;;;;;;;;;;;13.11;100.00;98105.03;5077325;28;19997;-78
2022/09/19 11:36:23;;;;;;;;;;;;;;;13.31;100.00;98104.13;5074375;28;20221;-79
2022/09/19 11:38:55;;;;;;;;;;;;;;;13.26;100.00;98101.47;5071463;28;19934;-79
2022/09/19 11:41:31;;;;;;;;;;;;;;;13.45;100.00;98099.78;5073088;28;19925;-80
2022/09/19 11:44:06;;;;;;;;;;;;;;;13.48;100.00;98099.22;5074039;28;19924;-78
2022/09/19 11:46:39;;;;;;;;;;;;;;;13.60;100.00;98106.94;5080215;28;19924;-77
2022/09/19 11:49:23;;;;;;;;;;;;;;;13.53;100.00;98096.50;5080969;28;19929;-79
2022/09/19 11:51:54;;;;;;;;;;;;;;;13.65;100.00;98086.22;5081763;28;19934;-79
2022/09/19 11:54:39;;;;;;;;;;;;;;;13.56;100.00;98085.19;5092377;28;20415;-78
2022/09/19 11:57:12;;;;;;;;;;;;;;;13.68;100.00;98095.63;5069850;28;20392;-79
2022/09/19 11:59:48;;;;;;;;;;;;;;;13.66;100.00;98095.06;5088357;28;19930;-80
2022/09/19 12:02:28;;;;;;;;;;;;;;;13.57;100.00;98092.19;5078606;28;20420;-80
2022/09/19 12:05:01;;;;;;;;;;;;;;;13.46;100.00;98087.97;5071833;28;19924;-79
2022/09/19 12:07:31;;;;;;;;;;;;;;;13.60;100.00;98074.72;5087857;28;19924;-80
2022/09/19 12:10:01;;;;;;;;;;;;;;;13.60;100.00;98077.41;5091091;28;20023;-80
2022/09/19 12:12:31;;;;;;;;;;;;;;;13.65;100.00;98088.91;5079379;28;19924;-79
2022/09/19 12:15:00;;;;;;;;;;;;;;;13.64;100.00;98081.16;5071220;28;19924;-82
2022/09/19 12:17:29;;;;;;;;;;;;;;;13.70;100.00;98067.41;5080159;28;20031;-78
2022/09/19 12:19:57;;;;;;;;;;;;;;;13.79;100.00;98067.63;5068624;28;19932;-79
2022/09/19 12:22:26;;;;;;;;;;;;;;;13.76;100.00;98074.34;5087503;28;19934;-79
2022/09/19 12:24:56;;;;;;;;;;;;;;;13.99;100.00;98062.09;5081274;28;19929;-79
2022/09/19 12:27:26;;;;;;;;;;;;;;;14.00;100.00;98066.38;5072486;28;19972;-80
2022/09/19 12:29:58;;;;;;;;;;;;;;;13.80;100.00;98059.28;5067993;28;19928;-79
2022/09/19 12:32:28;;;;;;;;;;;;;;;13.87;100.00;98054.41;5094637;28;19924;-79
2022/09/19 12:34:59;;;;;;;;;;;;;;;13.99;100.00;98064.75;5069204;28;19925;-81
2022/09/19 12:37:31;;;;;;;;;;;;;;;13.90;100.00;98059.19;5074325;28;19928;-79
2022/09/19 12:40:03;;;;;;;;;;;;;;;13.92;100.00;98059.75;5072247;28;19963;-80
2022/09/19 12:42:33;;;;;;;;;;;;;;;13.95;100.00;98061.88;5078117;28;19967;-79
2022/09/19 12:45:04;;;;;;;;;;;;;;;13.93;100.00;98050.59;5068499;28;20423;-80
2022/09/19 12:47:37;;;;;;;;;;;;;;;13.92;100.00;98062.44;5080866;28;19924;-80
2022/09/19 12:50:15;;;;;;;;;;;;;;;13.95;100.00;98053.00;5084852;28;19931;-80
2022/09/19 12:52:44;;;;;;;;;;;;;;;13.96;100.00;98051.91;5080415;28;19928;-80
2022/09/19 12:55:15;;;;;;;;;;;;;;;13.87;100.00;98051.72;5079800;28;19932;-80
2022/09/19 12:57:46;;;;;;;;;;;;;;;13.83;100.00;98060.63;5059947;28;19971;-80
2022/09/19 13:00:14;;;;;;;;;;;;;;;13.77;100.00;98059.84;5065668;28;20378;-80
2022/09/19 13:02:44;;;;;;;;;;;;;;;13.76;100.00;98060.94;5075138;28;19943;-80
2022/09/19 13:05:15;;;;;;;;;;;;;;;13.82;100.00;98062.50;5079945;28;19970;-79